Time;durP1;ratioP1;P1;durP2;ratioP2;P2;SDS_P1;SDS_P2;PMS_P1;PMS_P2;Temp;Humidity;BMP_temperature;BMP_pressure;BME280_temperature;BME280_humidity;BME280_pressure;Samples;Min_cycle;Max_cycle;Signal;HPM_P1;HPM_P2
2022/01/15 00:02:11;;;;;;;11.88;5.50;;;;;;;8.84;100.00;102214.38;5151463;27;20043;-83
2022/01/15 00:04:39;;;;;;;11.15;5.07;;;;;;;8.61;100.00;102217.97;5115219;27;20079;-82
2022/01/15 00:07:06;;;;;;;12.23;5.90;;;;;;;8.78;100.00;102202.19;5114988;27;20043;-83
2022/01/15 00:09:33;;;;;;;13.55;6.38;;;;;;;8.84;100.00;102186.50;5119936;27;20049;-83
2022/01/15 00:12:00;;;;;;;14.93;6.93;;;;;;;8.71;100.00;102171.78;5136029;27;20510;-84
2022/01/15 00:14:36;;;;;;;12.15;5.88;;;;;;;8.64;100.00;102168.34;5153804;27;20051;-83
2022/01/15 00:17:08;;;;;;;11.90;5.90;;;;;;;8.76;100.00;102188.28;5153191;27;20634;-83
2022/01/15 00:19:44;;;;;;;12.15;5.75;;;;;;;8.81;100.00;102177.81;5134461;27;20476;-83
2022/01/15 00:22:17;;;;;;;10.20;5.18;;;;;;;9.15;100.00;102185.38;5153283;27;20042;-83
2022/01/15 00:24:45;;;;;;;14.60;6.70;;;;;;;8.84;100.00;102149.06;5135227;27;20126;-84
2022/01/15 00:27:13;;;;;;;15.95;8.27;;;;;;;8.65;100.00;102197.94;5153574;27;20558;-83
2022/01/15 00:29:39;;;;;;;16.42;7.82;;;;;;;8.90;100.00;102178.59;5147298;27;20045;-83
2022/01/15 00:32:07;;;;;;;14.20;7.28;;;;;;;9.03;100.00;102170.66;5114915;28;20459;-83
2022/01/15 00:34:34;;;;;;;17.15;8.95;;;;;;;8.62;100.00;102159.66;5134581;27;20050;-83
2022/01/15 00:37:02;;;;;;;17.23;8.93;;;;;;;8.49;100.00;102135.38;5118518;28;20043;-83
2022/01/15 00:39:29;;;;;;;15.48;8.50;;;;;;;8.59;100.00;102124.84;5118709;27;20039;-83
2022/01/15 00:41:55;;;;;;;18.27;7.53;;;;;;;8.76;100.00;102125.59;5135325;27;20405;-83
2022/01/15 00:44:22;;;;;;;16.05;8.25;;;;;;;8.49;100.00;102109.25;5135201;27;20046;-83
2022/01/15 00:46:49;;;;;;;16.88;8.63;;;;;;;8.52;100.00;102124.91;5152958;27;20108;-83
2022/01/15 00:49:16;;;;;;;15.15;7.85;;;;;;;8.28;100.00;102097.19;5151932;27;20078;-83
2022/01/15 00:51:43;;;;;;;15.05;7.47;;;;;;;8.02;100.00;102113.00;5130647;27;20045;-83
2022/01/15 00:54:09;;;;;;;13.63;7.13;;;;;;;7.76;100.00;102059.22;5151216;27;20469;-83
2022/01/15 00:56:37;;;;;;;12.63;6.35;;;;;;;8.01;100.00;102066.06;5152619;27;20053;-83
2022/01/15 00:59:03;;;;;;;13.45;6.55;;;;;;;8.02;100.00;102086.03;5152672;27;20050;-83
2022/01/15 01:01:30;;;;;;;13.65;5.47;;;;;;;7.79;100.00;102081.78;5152868;27;20038;-82
2022/01/15 01:03:57;;;;;;;11.52;5.28;;;;;;;8.02;100.00;102101.69;5136466;27;20059;-84
2022/01/15 01:06:24;;;;;;;11.98;5.50;;;;;;;7.57;100.00;102081.88;5127518;27;20130;-83
2022/01/15 01:08:51;;;;;;;10.75;4.78;;;;;;;7.65;100.00;102086.19;5117776;27;20057;-84
2022/01/15 01:11:28;;;;;;;10.07;4.07;;;;;;;7.20;100.00;102050.72;5148456;27;20052;-83
2022/01/15 01:22:51;;;;;;;10.40;3.80;;;;;;;7.09;100.00;102052.50;5136490;27;20492;-83
2022/01/15 01:24:48;;;;;;;8.32;3.65;;;;;;;6.70;100.00;102027.41;5135327;27;20047;-83
2022/01/15 01:27:29;;;;;;;8.45;3.45;;;;;;;6.97;100.00;102048.16;5117900;27;20130;-83
2022/01/15 01:30:11;;;;;;;7.57;3.03;;;;;;;7.32;100.00;102068.06;5125956;27;20043;-83
2022/01/15 01:32:50;;;;;;;8.48;3.10;;;;;;;7.12;100.00;102056.81;5138587;27;20388;-84
2022/01/15 01:35:31;;;;;;;9.98;3.65;;;;;;;6.69;100.00;102049.06;5155098;27;20051;-82
2022/01/15 01:38:07;;;;;;;9.55;3.40;;;;;;;7.07;100.00;102042.97;5136063;27;20053;-82
2022/01/15 01:40:43;;;;;;;8.18;3.60;;;;;;;7.11;100.00;102048.16;5131472;27;20043;-83
2022/01/15 01:45:52;;;;;;;8.00;3.42;;;;;;;7.15;100.00;102038.59;5156387;27;20058;-84
2022/01/15 01:48:19;;;;;;;9.45;4.07;;;;;;;6.61;100.00;102015.25;5156744;27;20057;-83
2022/01/15 01:50:45;;;;;;;8.35;3.70;;;;;;;6.86;100.00;102025.66;5131804;27;20042;-82
2022/01/15 01:53:12;;;;;;;8.27;3.30;;;;;;;6.82;100.00;102033.44;5140574;27;20050;-83
2022/01/15 01:55:39;;;;;;;9.07;3.60;;;;;;;6.78;100.00;102016.13;5138172;27;20468;-83
2022/01/15 01:58:06;;;;;;;10.43;3.50;;;;;;;6.65;100.00;102004.81;5156222;27;20093;-83
2022/01/15 02:00:32;;;;;;;10.63;3.53;;;;;;;6.73;100.00;101989.22;5136659;27;20049;-83
2022/01/15 02:03:00;;;;;;;9.25;3.60;;;;;;;6.72;100.00;101981.41;5155747;27;20388;-83
2022/01/15 02:05:27;;;;;;;7.90;3.53;;;;;;;6.36;100.00;101999.66;5135055;27;20541;-83
2022/01/15 02:07:54;;;;;;;8.55;3.28;;;;;;;6.79;100.00;102001.34;5135506;27;20043;-83
2022/01/15 02:10:21;;;;;;;8.45;3.35;;;;;;;6.70;100.00;102022.19;5129078;27;20058;-83
2022/01/15 02:12:54;;;;;;;9.55;4.00;;;;;;;6.52;100.00;102015.28;5138040;27;20061;-83
2022/01/15 02:15:22;;;;;;;7.53;3.42;;;;;;;6.59;100.00;101994.44;5155314;27;20046;-83
2022/01/15 02:17:50;;;;;;;9.45;3.92;;;;;;;6.38;100.00;101965.84;5137539;27;20047;-83
2022/01/15 02:25:47;;;;;;;9.98;4.07;;;;;;;6.67;100.00;102002.22;5155604;27;20054;-83
2022/01/15 02:28:16;;;;;;;12.13;3.92;;;;;;;6.59;100.00;101993.56;5140747;27;20057;-83
2022/01/15 02:30:43;;;;;;;9.48;3.35;;;;;;;6.77;100.00;101983.13;5139384;27;20128;-83
2022/01/15 02:33:10;;;;;;;10.40;3.90;;;;;;;6.56;100.00;101986.63;5121900;27;20051;-83
2022/01/15 02:35:37;;;;;;;10.18;3.35;;;;;;;6.59;100.00;101994.44;5132297;27;20097;-83
2022/01/15 02:38:07;;;;;;;10.23;3.83;;;;;;;6.74;100.00;101971.84;5134058;27;20395;-83
2022/01/15 02:40:35;;;;;;;8.85;3.58;;;;;;;6.70;100.00;101981.41;5138790;27;20051;-83
2022/01/15 02:43:11;;;;;;;8.98;3.83;;;;;;;6.73;100.00;101976.22;5116832;27;20504;-82
2022/01/15 02:45:42;;;;;;;11.43;3.88;;;;;;;6.62;100.00;101972.72;5125975;27;20047;-83
2022/01/15 02:48:15;;;;;;;10.10;4.10;;;;;;;6.56;100.00;101960.59;5136710;27;20057;-83
2022/01/15 02:50:43;;;;;;;9.35;3.85;;;;;;;6.35;100.00;101948.47;5138623;27;20042;-82
2022/01/15 02:53:12;;;;;;;7.47;3.33;;;;;;;6.75;100.00;101971.00;5154777;27;20053;-83
2022/01/15 02:55:44;;;;;;;11.20;3.80;;;;;;;6.73;100.00;101965.78;5137450;27;20373;-82
2022/01/15 02:58:11;;;;;;;8.65;3.60;;;;;;;6.47;100.00;101913.78;5154245;27;20373;-83
2022/01/15 03:00:38;;;;;;;10.35;4.18;;;;;;;6.50;100.00;101933.72;5136693;27;20057;-83
2022/01/15 03:03:05;;;;;;;7.18;3.03;;;;;;;6.57;100.00;101928.53;5150412;27;20047;-82
2022/01/15 03:05:33;;;;;;;11.68;3.90;;;;;;;6.29;100.00;101895.63;5137936;27;20046;-83
2022/01/15 03:08:00;;;;;;;9.07;4.05;;;;;;;6.66;100.00;101948.47;5136163;27;20517;-82
2022/01/15 03:10:27;;;;;;;8.07;3.33;;;;;;;6.73;100.00;101947.56;5152303;27;20044;-83
2022/01/15 03:12:56;;;;;;;9.48;3.72;;;;;;;6.50;100.00;101899.88;5156999;27;20068;-82
2022/01/15 03:15:23;;;;;;;6.78;3.10;;;;;;;6.60;100.00;101935.44;5146276;27;21092;-83
2022/01/15 03:17:51;;;;;;;8.85;3.33;;;;;;;6.63;100.00;101935.44;5117002;27;20043;-83
2022/01/15 03:20:20;;;;;;;8.93;3.97;;;;;;;6.46;100.00;101930.25;5126604;27;20053;-84
2022/01/15 03:22:47;;;;;;;8.50;3.60;;;;;;;6.13;100.00;101913.81;5154102;27;20042;-83
2022/01/15 03:25:15;;;;;;;8.93;3.88;;;;;;;6.16;100.00;101929.44;5136123;27;20383;-84
2022/01/15 03:27:42;;;;;;;8.20;3.33;;;;;;;6.22;100.00;101899.94;5135426;27;20048;-84
2022/01/15 03:30:11;;;;;;;9.32;3.03;;;;;;;6.41;100.00;101926.78;5134977;27;20042;-84
2022/01/15 03:32:42;;;;;;;8.02;3.30;;;;;;;6.46;100.00;101919.84;5136173;27;20391;-84
2022/01/15 03:35:15;;;;;;;7.07;2.85;;;;;;;6.45;100.00;101905.13;5135953;27;20050;-83
2022/01/15 03:37:42;;;;;;;8.33;3.10;;;;;;;6.33;100.00;101894.72;5154227;27;20050;-83
2022/01/15 03:40:12;;;;;;;10.25;3.38;;;;;;;6.39;100.00;101913.81;5153664;27;20051;-83
2022/01/15 03:42:39;;;;;;;7.70;2.90;;;;;;;6.50;100.00;101886.88;5135955;27;20406;-84
2022/01/15 03:45:06;;;;;;;7.63;2.90;;;;;;;6.44;100.00;101901.63;5135624;27;20054;-84
2022/01/15 03:47:34;;;;;;;7.13;2.63;;;;;;;6.07;100.00;101859.19;5136021;27;20042;-84
2022/01/15 03:50:01;;;;;;;7.72;3.33;;;;;;;6.07;100.00;101893.91;5144574;27;20062;-84
2022/01/15 03:52:28;;;;;;;7.25;3.03;;;;;;;6.29;100.00;101886.06;5133343;27;20047;-84
2022/01/15 03:54:56;;;;;;;7.90;3.30;;;;;;;6.36;100.00;101905.16;5133281;27;20047;-84
2022/01/15 03:57:23;;;;;;;8.20;2.83;;;;;;;6.41;100.00;101895.56;5126538;27;20429;-83
2022/01/15 03:59:50;;;;;;;8.30;3.20;;;;;;;6.33;100.00;101872.19;5147719;27;20769;-84
2022/01/15 04:02:17;;;;;;;6.68;2.60;;;;;;;6.11;100.00;101839.25;5135212;27;20057;-84
2022/01/15 04:04:44;;;;;;;7.55;3.03;;;;;;;6.19;100.00;101858.34;5134242;27;20071;-83
2022/01/15 04:07:10;;;;;;;6.82;2.67;;;;;;;6.49;100.00;101885.16;5134614;27;20058;-84
2022/01/15 04:09:37;;;;;;;6.82;2.42;;;;;;;6.32;100.00;101874.78;5134562;27;20046;-84
2022/01/15 04:12:04;;;;;;;6.78;2.67;;;;;;;6.51;100.00;101893.84;5135143;27;20050;-83
2022/01/15 04:14:31;;;;;;;6.50;2.50;;;;;;;6.30;100.00;101866.97;5135282;27;20472;-84
2022/01/15 04:16:57;;;;;;;5.75;2.20;;;;;;;6.28;100.00;101866.13;5135645;27;20678;-84
2022/01/15 04:19:25;;;;;;;5.15;2.40;;;;;;;6.43;100.00;101881.69;5153018;27;20049;-83
2022/01/15 04:21:52;;;;;;;9.30;3.78;;;;;;;6.23;100.00;101865.25;5153640;27;20476;-83
2022/01/15 04:24:20;;;;;;;6.75;2.75;;;;;;;6.11;100.00;101870.47;5135189;27;20047;-83
2022/01/15 04:26:48;;;;;;;5.45;2.17;;;;;;;6.23;100.00;101853.13;5168036;27;20050;-83
2022/01/15 04:29:15;;;;;;;7.15;2.78;;;;;;;6.03;100.00;101847.09;5152165;27;20053;-82
2022/01/15 04:31:49;;;;;;;6.28;2.53;;;;;;;6.10;100.00;101835.81;5135111;27;20391;-83
2022/01/15 04:34:18;;;;;;;6.47;2.25;;;;;;;6.19;100.00;101871.34;5134660;27;20047;-83
2022/01/15 04:36:46;;;;;;;8.13;3.30;;;;;;;6.18;100.00;101869.59;5130709;27;20077;-83
2022/01/15 04:39:14;;;;;;;7.03;2.40;;;;;;;5.96;100.00;101851.41;5137060;27;20058;-83
2022/01/15 04:41:41;;;;;;;5.93;2.47;;;;;;;5.97;100.00;101876.56;5139473;27;20369;-83
2022/01/15 04:44:08;;;;;;;5.85;2.13;;;;;;;5.95;100.00;101867.88;5157263;27;20058;-83
2022/01/15 04:46:36;;;;;;;7.65;3.13;;;;;;;5.86;100.00;101855.75;5157853;27;20408;-84
2022/01/15 04:49:05;;;;;;;7.43;2.45;;;;;;;5.53;100.00;101838.41;5137597;27;20047;-84
2022/01/15 04:51:33;;;;;;;6.43;2.50;;;;;;;5.87;100.00;101877.38;5118206;27;20047;-84
2022/01/15 04:54:00;;;;;;;6.32;2.40;;;;;;;5.78;100.00;101857.47;5118335;27;20057;-83
2022/01/15 04:56:26;;;;;;;6.18;2.40;;;;;;;5.69;100.00;101847.94;5125634;27;20459;-83
2022/01/15 04:58:53;;;;;;;6.72;2.47;;;;;;;5.65;100.00;101837.53;5136515;27;20047;-83
2022/01/15 05:01:20;;;;;;;7.97;2.97;;;;;;;5.66;100.00;101829.72;5134306;27;20046;-84
2022/01/15 05:03:47;;;;;;;7.03;2.50;;;;;;;5.78;100.00;101848.81;5131414;27;20055;-83
2022/01/15 05:06:14;;;;;;;6.13;2.58;;;;;;;5.82;100.00;101860.91;5117684;27;20051;-83
2022/01/15 05:08:44;;;;;;;6.18;2.17;;;;;;;5.90;100.00;101857.47;5118129;27;20053;-83
2022/01/15 05:11:26;;;;;;;7.93;3.03;;;;;;;6.07;100.00;101865.28;5136318;27;20051;-84
2022/01/15 05:13:53;;;;;;;5.53;2.50;;;;;;;5.82;100.00;101858.31;5118394;27;20506;-84
2022/01/15 05:16:20;;;;;;;6.03;2.58;;;;;;;5.69;100.00;101834.06;5136421;27;20052;-84
2022/01/15 05:18:47;;;;;;;4.93;2.20;;;;;;;5.73;100.00;101848.78;5177801;27;20053;-83
2022/01/15 05:21:13;;;;;;;5.97;2.42;;;;;;;5.61;100.00;101830.59;5157230;27;20480;-83
2022/01/15 05:23:40;;;;;;;6.47;2.20;;;;;;;5.78;100.00;101844.47;5155153;27;20042;-83
2022/01/15 05:26:09;;;;;;;6.97;2.20;;;;;;;5.61;100.00;101838.38;5160688;27;20051;-83
2022/01/15 05:28:36;;;;;;;7.35;2.70;;;;;;;5.68;100.00;101833.22;5132459;27;20410;-83
2022/01/15 05:31:03;;;;;;;5.35;1.98;;;;;;;5.68;100.00;101834.94;5173615;27;20045;-86
2022/01/15 05:33:29;;;;;;;10.30;2.90;;;;;;;5.42;100.00;101803.72;5154945;27;20628;-83
2022/01/15 05:35:56;;;;;;;7.13;2.55;;;;;;;5.38;100.00;101809.78;5148820;27;20080;-83
2022/01/15 05:38:23;;;;;;;5.00;2.03;;;;;;;5.50;100.00;101828.00;5117277;27;20051;-83
2022/01/15 05:40:50;;;;;;;6.40;2.58;;;;;;;5.53;100.00;101824.56;5126899;27;20510;-83
2022/01/15 05:43:17;;;;;;;6.13;2.33;;;;;;;5.63;100.00;101824.56;5127435;27;20036;-82
2022/01/15 05:45:45;;;;;;;6.45;2.25;;;;;;;5.65;100.00;101824.56;5132872;27;20051;-83
2022/01/15 05:48:12;;;;;;;5.10;2.20;;;;;;;5.51;100.00;101828.00;5126824;27;20133;-83
2022/01/15 05:50:39;;;;;;;6.22;2.33;;;;;;;5.42;100.00;101811.53;5142855;27;20054;-82
2022/01/15 05:53:05;;;;;;;4.57;2.13;;;;;;;5.63;100.00;101821.94;5130442;27;20049;-83
2022/01/15 05:55:32;;;;;;;4.32;1.90;;;;;;;5.61;100.00;101830.59;5133410;27;20043;-83
2022/01/15 05:57:59;;;;;;;6.50;2.30;;;;;;;5.41;100.00;101802.88;5119692;27;20047;-82
2022/01/15 06:00:26;;;;;;;5.82;2.53;;;;;;;5.54;100.00;101834.91;5128010;27;20047;-83
2022/01/15 06:02:52;;;;;;;4.50;1.90;;;;;;;5.45;100.00;101801.16;5127896;27;20038;-83
2022/01/15 06:05:19;;;;;;;5.53;2.10;;;;;;;5.51;100.00;101814.16;5149024;27;20046;-83
2022/01/15 06:07:46;;;;;;;5.80;2.13;;;;;;;5.47;100.00;101821.06;5145388;27;20053;-83
2022/01/15 06:10:13;;;;;;;4.78;2.10;;;;;;;5.69;100.00;101828.88;5146268;27;20042;-84
2022/01/15 06:12:42;;;;;;;6.22;2.25;;;;;;;5.28;100.00;101808.94;5124583;27;20065;-84
2022/01/15 06:15:13;;;;;;;7.00;2.72;;;;;;;5.25;100.00;101829.69;5134091;27;20551;-84
2022/01/15 06:17:41;;;;;;;6.15;2.38;;;;;;;5.40;100.00;101828.84;5125729;27;20054;-83
2022/01/15 06:20:10;;;;;;;5.32;2.03;;;;;;;5.41;100.00;101831.44;5126906;27;20050;-83
2022/01/15 06:22:37;;;;;;;5.95;2.20;;;;;;;5.24;100.00;101807.19;5124510;27;20043;-83
2022/01/15 06:25:05;;;;;;;6.60;2.55;;;;;;;5.33;100.00;101831.44;5128769;27;20054;-83
2022/01/15 06:27:32;;;;;;;5.18;2.10;;;;;;;5.31;100.00;101830.59;5127463;27;20491;-83
2022/01/15 06:30:03;;;;;;;5.95;2.17;;;;;;;5.19;100.00;101816.69;5130200;27;20046;-83
2022/01/15 06:32:35;;;;;;;4.38;1.80;;;;;;;5.07;100.00;101795.03;5127690;27;20129;-84
2022/01/15 06:35:13;;;;;;;7.45;2.63;;;;;;;5.25;100.00;101825.34;5128950;27;20416;-84
2022/01/15 06:37:40;;;;;;;6.43;2.20;;;;;;;4.99;100.00;101809.72;5128314;27;20127;-84
2022/01/15 06:40:09;;;;;;;7.13;2.38;;;;;;;5.05;100.00;101840.91;5145008;27;20389;-84
2022/01/15 06:42:37;;;;;;;5.57;2.13;;;;;;;4.97;100.00;101829.63;5147162;27;20098;-83
2022/01/15 06:45:05;;;;;;;5.25;2.10;;;;;;;4.80;100.00;101818.31;5133227;27;20444;-83
2022/01/15 06:47:32;;;;;;;6.63;2.30;;;;;;;4.80;100.00;101824.38;5130631;27;20035;-83
2022/01/15 06:50:04;;;;;;;5.00;1.92;;;;;;;4.90;100.00;101831.31;5126322;27;20085;-83
2022/01/15 06:52:34;;;;;;;5.32;1.95;;;;;;;5.05;100.00;101816.69;5144477;27;20129;-84
2022/01/15 06:55:02;;;;;;;6.43;2.42;;;;;;;4.81;100.00;101827.84;5151720;27;20046;-84
2022/01/15 06:57:29;;;;;;;6.53;2.60;;;;;;;4.74;100.00;101834.72;5144733;27;20051;-84
2022/01/15 06:59:58;;;;;;;6.70;2.53;;;;;;;4.61;100.00;101830.34;5129022;27;20050;-85
2022/01/15 07:02:25;;;;;;;7.03;2.47;;;;;;;4.85;100.00;101829.56;5125246;27;20082;-84
2022/01/15 07:04:52;;;;;;;6.85;2.63;;;;;;;4.70;100.00;101815.69;5145943;27;20097;-84
2022/01/15 07:07:18;;;;;;;6.68;2.60;;;;;;;4.45;100.00;101796.56;5153943;27;20087;-84
2022/01/15 07:09:45;;;;;;;6.35;2.72;;;;;;;4.41;100.00;101812.09;5126915;27;20058;-84
2022/01/15 07:12:12;;;;;;;5.95;2.40;;;;;;;4.45;100.00;101804.34;5128426;27;20490;-84
2022/01/15 07:14:39;;;;;;;7.60;2.83;;;;;;;4.45;100.00;101803.47;5144607;27;20070;-84
2022/01/15 07:17:06;;;;;;;5.80;2.50;;;;;;;4.27;100.00;101750.66;5126938;27;20047;-84
2022/01/15 07:19:33;;;;;;;7.57;3.00;;;;;;;4.42;100.00;101764.56;5143573;27;20050;-84
2022/01/15 07:22:00;;;;;;;6.22;2.50;;;;;;;4.63;100.00;101781.94;5126206;27;20485;-84
2022/01/15 07:24:27;;;;;;;7.07;2.97;;;;;;;4.38;100.00;101767.13;5127464;27;20057;-84
2022/01/15 07:26:53;;;;;;;11.32;3.22;;;;;;;4.42;100.00;101799.13;5152932;27;20047;-84
2022/01/15 07:29:22;;;;;;;7.78;3.17;;;;;;;4.42;100.00;101798.28;5125229;27;20061;-84
2022/01/15 07:31:49;;;;;;;6.78;2.50;;;;;;;4.30;100.00;101799.06;5147889;27;20052;-84
2022/01/15 07:34:16;;;;;;;6.95;2.72;;;;;;;4.19;100.00;101799.00;5126753;27;20074;-84
2022/01/15 07:36:44;;;;;;;6.45;2.50;;;;;;;4.31;100.00;101798.22;5129645;27;20055;-84
2022/01/15 07:39:10;;;;;;;6.03;2.40;;;;;;;4.29;100.00;101789.56;5146588;27;20468;-84
2022/01/15 07:41:37;;;;;;;6.20;2.72;;;;;;;4.22;100.00;101801.63;5132939;27;20070;-85
2022/01/15 07:44:04;;;;;;;6.57;2.92;;;;;;;4.07;100.00;101791.16;5147880;27;21593;-84
2022/01/15 07:46:32;;;;;;;6.72;2.63;;;;;;;4.07;100.00;101789.44;5130675;27;20039;-84
2022/01/15 07:48:58;;;;;;;8.02;2.58;;;;;;;4.13;100.00;101792.06;5130140;27;20059;-84
2022/01/15 07:51:25;;;;;;;6.50;2.65;;;;;;;3.99;100.00;101796.31;5123158;27;20042;-84
2022/01/15 07:53:52;;;;;;;7.70;2.75;;;;;;;3.98;100.00;101785.06;5135681;27;20480;-84
2022/01/15 07:56:19;;;;;;;5.93;2.13;;;;;;;3.99;100.00;101801.47;5134509;27;20047;-83
2022/01/15 07:58:46;;;;;;;8.68;2.78;;;;;;;3.94;100.00;101792.81;5144404;27;20051;-83
2022/01/15 08:01:13;;;;;;;6.00;2.47;;;;;;;3.61;100.00;101745.06;5133964;27;20055;-84
2022/01/15 08:03:41;;;;;;;6.15;2.45;;;;;;;3.87;100.00;101796.22;5126835;27;20046;-84
2022/01/15 08:06:09;;;;;;;7.22;2.80;;;;;;;3.65;100.00;101769.25;5135173;27;20054;-84
2022/01/15 08:08:36;;;;;;;8.07;3.00;;;;;;;3.59;100.00;101754.56;5135398;27;20057;-84
2022/01/15 08:11:04;;;;;;;6.88;2.63;;;;;;;3.56;100.00;101733.81;5153824;27;20420;-83
2022/01/15 08:13:31;;;;;;;5.57;2.50;;;;;;;3.56;100.00;101755.41;5136746;27;20053;-84
2022/01/15 08:15:58;;;;;;;7.90;2.75;;;;;;;3.53;100.00;101780.41;5134586;27;20057;-84
2022/01/15 08:18:26;;;;;;;8.20;2.90;;;;;;;3.57;100.00;101792.53;5124420;27;20051;-84
2022/01/15 08:20:53;;;;;;;8.88;2.90;;;;;;;3.33;100.00;101769.88;5130074;27;20038;-84
2022/01/15 08:23:20;;;;;;;8.05;3.60;;;;;;;3.27;100.00;101775.00;5129802;27;20043;-83
2022/01/15 08:25:47;;;;;;;8.02;3.10;;;;;;;3.08;100.00;101759.31;5146451;27;20498;-84
2022/01/15 08:28:14;;;;;;;8.05;3.67;;;;;;;3.17;100.00;101774.94;5140427;27;20089;-84
2022/01/15 08:30:41;;;;;;;7.82;3.70;;;;;;;2.92;100.00;101752.22;5128175;27;20051;-84
2022/01/15 08:33:07;;;;;;;9.52;3.42;;;;;;;3.24;100.00;101775.88;5131547;27;20617;-83
2022/01/15 08:35:34;;;;;;;7.32;2.70;;;;;;;3.42;100.00;101782.91;5156066;27;20046;-83
2022/01/15 08:38:04;;;;;;;6.40;2.80;;;;;;;3.44;100.00;101763.09;5134876;27;20050;-84
2022/01/15 08:40:32;;;;;;;8.85;3.33;;;;;;;3.70;100.00;101781.44;5114784;28;20047;-83
2022/01/15 08:43:03;;;;;;;7.55;2.97;;;;;;;3.59;100.00;101778.75;5131243;27;20043;-83
2022/01/15 08:45:30;;;;;;;6.50;2.78;;;;;;;3.23;100.00;101720.63;5135603;27;20490;-83
2022/01/15 08:47:57;;;;;;;5.53;2.42;;;;;;;3.59;100.00;101772.69;5135315;27;20057;-82
2022/01/15 08:50:24;;;;;;;7.25;2.40;;;;;;;3.40;100.00;101751.84;5134185;27;20584;-82
2022/01/15 08:52:51;;;;;;;5.93;2.35;;;;;;;3.64;100.00;101762.38;5132752;27;20047;-83
2022/01/15 08:55:20;;;;;;;6.28;2.60;;;;;;;3.73;100.00;101757.25;5123958;27;20534;-83
2022/01/15 08:57:47;;;;;;;6.68;2.60;;;;;;;3.92;100.00;101763.44;5156286;27;20077;-83
2022/01/15 09:00:17;;;;;;;6.88;2.78;;;;;;;3.92;100.00;101750.47;5134877;27;20054;-84
2022/01/15 09:02:44;;;;;;;6.85;2.72;;;;;;;4.32;100.00;101743.78;5134894;27;20042;-83
2022/01/15 09:05:11;;;;;;;5.72;2.38;;;;;;;4.72;100.00;101756.03;5137412;27;20047;-83
2022/01/15 09:07:38;;;;;;;5.72;2.45;;;;;;;5.06;100.00;101741.38;5133945;27;20049;-83
2022/01/15 09:10:05;;;;;;;5.45;2.33;;;;;;;5.46;100.00;101754.38;5134422;27;20049;-83
2022/01/15 09:12:32;;;;;;;7.93;2.65;;;;;;;5.35;100.00;101739.66;5153346;27;20396;-83
2022/01/15 09:15:19;;;;;;;5.15;2.05;;;;;;;5.26;100.00;101759.59;5152635;27;20047;-84
2022/01/15 09:17:46;;;;;;;6.22;2.70;;;;;;;4.59;100.00;101733.50;5138425;27;20042;-83
2022/01/15 09:20:13;;;;;;;4.70;1.90;;;;;;;4.79;100.00;101757.75;5134102;27;20047;-83
2022/01/15 09:22:40;;;;;;;6.53;2.40;;;;;;;4.64;100.00;101737.84;5134457;27;20051;-83
2022/01/15 09:25:07;;;;;;;5.00;2.00;;;;;;;4.85;100.00;101747.41;5136940;27;20049;-83
2022/01/15 09:30:20;;;;;;;7.53;3.05;;;;;;;4.72;100.00;101743.91;5137679;27;20062;-83
2022/01/15 09:32:52;;;;;;;6.45;2.65;;;;;;;4.78;100.00;101711.94;5137243;27;20049;-83
2022/01/15 09:35:27;;;;;;;7.55;2.60;;;;;;;5.03;100.00;101740.50;5138233;27;20047;-83
2022/01/15 09:37:55;;;;;;;5.72;2.25;;;;;;;5.08;100.00;101743.97;5138178;27;20046;-83
2022/01/15 09:40:25;;;;;;;5.63;2.10;;;;;;;5.16;100.00;101741.41;5128295;27;20043;-83
2022/01/15 09:42:52;;;;;;;6.63;2.47;;;;;;;5.24;100.00;101731.88;5156223;27;20048;-83
2022/01/15 09:45:21;;;;;;;5.90;2.40;;;;;;;5.29;100.00;101725.84;5133951;27;20547;-83
2022/01/15 09:48:00;;;;;;;8.73;3.70;;;;;;;5.06;100.00;101720.59;5136834;27;20042;-83
2022/01/15 09:50:31;;;;;;;8.80;3.55;;;;;;;5.32;100.00;101737.94;5130022;27;20054;-83
2022/01/15 09:52:57;;;;;;;7.00;2.55;;;;;;;5.31;100.00;101707.63;5138634;27;20502;-83
2022/01/15 09:55:25;;;;;;;8.02;3.00;;;;;;;5.44;100.00;101740.53;5155766;27;20060;-82
2022/01/15 09:57:53;;;;;;;8.68;3.30;;;;;;;5.42;100.00;101721.50;5137567;27;20562;-83
2022/01/15 10:00:22;;;;;;;11.63;3.85;;;;;;;5.62;100.00;101736.22;5154536;27;20039;-82
2022/01/15 10:02:52;;;;;;;8.13;3.42;;;;;;;5.60;100.00;101723.22;5143371;27;20047;-82
2022/01/15 10:05:19;;;;;;;8.80;3.28;;;;;;;5.58;100.00;101731.84;5127780;27;20778;-83
2022/01/15 10:07:58;;;;;;;13.13;4.90;;;;;;;5.91;100.00;101741.34;5131092;27;20065;-82
2022/01/15 10:10:27;;;;;;;8.13;3.30;;;;;;;5.67;100.00;101726.69;5128317;27;20050;-82
2022/01/15 10:12:54;;;;;;;8.77;3.17;;;;;;;5.86;100.00;101740.47;5128415;27;20054;-84
2022/01/15 10:15:22;;;;;;;13.45;3.47;;;;;;;5.63;100.00;101738.81;5136091;27;20047;-83
2022/01/15 10:17:48;;;;;;;9.45;2.88;;;;;;;6.04;100.00;101734.44;5142873;27;20049;-83
2022/01/15 10:20:22;;;;;;;7.63;3.30;;;;;;;6.10;100.00;101744.81;5143069;27;20047;-84
2022/01/15 10:22:52;;;;;;;7.82;2.92;;;;;;;5.74;100.00;101723.19;5127706;27;20039;-84
2022/01/15 10:25:21;;;;;;;9.57;3.35;;;;;;;6.25;100.00;101725.66;5149731;27;20043;-84
2022/01/15 10:27:55;;;;;;;6.47;2.60;;;;;;;6.34;100.00;101710.03;5130587;27;20125;-83
2022/01/15 10:30:26;;;;;;;7.15;2.85;;;;;;;6.46;100.00;101737.72;5135167;27;20061;-85
2022/01/15 10:33:05;;;;;;;7.18;2.55;;;;;;;6.55;100.00;101747.22;5136630;27;20049;-85
2022/01/15 10:35:40;;;;;;;9.23;3.28;;;;;;;6.53;100.00;101694.34;5132173;27;20410;-85
2022/01/15 10:38:11;;;;;;;7.18;2.80;;;;;;;6.77;100.00;101720.22;5116084;27;20047;-84
2022/01/15 10:40:38;;;;;;;7.18;2.95;;;;;;;6.92;100.00;101732.25;5128935;27;20047;-84
2022/01/15 10:43:05;;;;;;;8.05;3.65;;;;;;;6.62;100.00;101718.59;5135944;27;20057;-85
2022/01/15 10:45:34;;;;;;;6.38;2.55;;;;;;;6.92;100.00;101728.81;5137109;27;20403;-85
2022/01/15 10:48:04;;;;;;;8.15;2.97;;;;;;;6.79;100.00;101723.69;5136942;27;20051;-85
2022/01/15 10:50:37;;;;;;;7.25;2.72;;;;;;;6.79;100.00;101710.66;5134050;27;20054;-90
2022/01/15 10:53:10;;;;;;;6.75;2.53;;;;;;;7.06;100.00;101718.31;5123182;27;20136;-85
2022/01/15 10:55:38;;;;;;;;;;;;;;;7.36;100.00;101722.41;5128878;27;20039;-85
2022/01/15 10:58:11;;;;;;;8.23;2.90;;;;;;;6.93;100.00;101694.94;5153688;27;19926;-85
2022/01/15 11:00:50;;;;;;;7.07;2.55;;;;;;;7.00;100.00;101688.81;5135169;27;20050;-85
2022/01/15 11:03:17;;;;;;;7.97;2.38;;;;;;;6.83;100.00;101668.13;5143510;27;20054;-85
2022/01/15 11:05:50;;;;;;;6.50;2.55;;;;;;;7.35;100.00;101702.44;5153624;27;20054;-85
2022/01/15 11:08:28;;;;;;;6.10;2.13;;;;;;;7.39;100.00;101698.94;5140594;27;20052;-85
2022/01/15 11:10:56;;;;;;;7.65;2.92;;;;;;;7.32;100.00;101705.06;5137500;27;20225;-85
2022/01/15 11:13:44;;;;;;;7.97;3.17;;;;;;;7.28;100.00;101691.22;5143763;27;20051;-85
2022/01/15 11:16:15;;;;;;;8.02;3.40;;;;;;;7.36;100.00;101691.13;5154773;27;20051;-85
2022/01/15 11:18:46;;;;;;;6.07;2.45;;;;;;;7.56;100.00;101684.00;5137818;27;20122;-85
2022/01/15 11:21:15;;;;;;;6.00;2.25;;;;;;;7.46;100.00;101674.53;5137815;27;20055;-85
2022/01/15 11:23:43;;;;;;;6.82;2.85;;;;;;;7.40;100.00;101671.97;5152944;27;20048;-85
2022/01/15 11:26:11;;;;;;;7.72;3.20;;;;;;;7.51;100.00;101669.31;5131268;27;20043;-86
2022/01/15 11:28:39;;;;;;;11.98;3.50;;;;;;;7.43;100.00;101648.50;5135720;27;20050;-84
2022/01/15 11:31:13;;;;;;;7.53;2.85;;;;;;;7.43;100.00;101626.81;5135076;27;20053;-85
2022/01/15 11:33:50;;;;;;;7.13;2.60;;;;;;;7.62;100.00;101646.59;5135776;27;20365;-86
2022/01/15 11:36:37;;;;;;;8.15;2.78;;;;;;;7.82;100.00;101643.75;5131238;27;20411;-85
2022/01/15 11:39:09;;;;;;;7.03;2.75;;;;;;;7.75;100.00;101657.72;5132066;27;20050;-84
2022/01/15 11:41:39;;;;;;;8.20;2.65;;;;;;;7.65;100.00;101657.00;5129331;27;20050;-84
2022/01/15 11:44:13;;;;;;;8.05;2.28;;;;;;;8.03;100.00;101655.66;5148164;27;20042;-84
2022/01/15 11:46:44;;;;;;;6.78;2.88;;;;;;;7.77;100.00;101654.25;5134790;27;20046;-84
2022/01/15 11:49:23;;;;;;;7.75;2.53;;;;;;;7.98;100.00;101650.53;5133319;27;20099;-84
2022/01/15 11:52:22;;;;;;;6.72;2.88;;;;;;;7.97;100.00;101648.78;5115010;27;20181;-85